METAR Data
IDs: Format: Raw Decoded Include TAF

Data at: 1504 UTC 10 Aug 2022

KL35 101455Z AUTO 27003KT 10SM CLR 14/10 A3037 RMK AO2
KL35 101435Z AUTO 00000KT 10SM CLR 13/08 A3036 RMK AO2
KL35 101415Z AUTO 00000KT 10SM CLR 11/08 A3036 RMK AO2
KL35 101355Z AUTO 00000KT 10SM CLR 10/07 A3036 RMK AO2
KL35 101335Z AUTO 00000KT 10SM CLR 09/07 A3036 RMK AO2
KL35 101315Z AUTO 00000KT 10SM CLR 08/07 A3035 RMK AO2
KL35 101255Z AUTO 00000KT 10SM CLR 08/07 A3034 RMK AO2
KL35 101235Z AUTO 00000KT 10SM CLR 08/07 A3034 RMK AO2
KL35 101215Z AUTO 00000KT 10SM CLR 09/07 A3033 RMK AO2
KL35 101155Z AUTO 00000KT 10SM CLR 09/07 A3033 RMK AO2
KL35 101135Z AUTO 00000KT 10SM CLR 09/07 A3034 RMK AO2
KL35 101115Z AUTO 00000KT 10SM CLR 10/07 A3033 RMK AO2
KL35 101055Z AUTO 00000KT 10SM CLR 10/07 A3033 RMK AO2
KL35 101035Z AUTO 00000KT 10SM CLR 10/07 A3034 RMK AO2
KL35 101015Z AUTO 00000KT 10SM CLR 10/07 A3034 RMK AO2
KL35 100955Z AUTO 00000KT 10SM CLR 11/07 A3034 RMK AO2
KL35 100935Z AUTO 00000KT 10SM CLR 11/08 A3034 RMK AO2
KL35 100915Z AUTO 00000KT 10SM CLR 11/07 A3034 RMK AO2
KL35 100855Z AUTO 00000KT 10SM CLR 11/07 A3034 RMK AO2
KL35 100835Z AUTO 00000KT 10SM CLR 11/08 A3034 RMK AO2
KL35 100815Z AUTO 00000KT 10SM CLR 11/08 A3034 RMK AO2
KL35 100755Z AUTO 00000KT 10SM CLR 11/08 A3034 RMK AO2
KL35 100735Z AUTO 00000KT 10SM CLR 12/08 A3034 RMK AO2
KL35 100715Z AUTO 00000KT 10SM SCT065 12/07 A3035 RMK AO2
KL35 100655Z AUTO 00000KT 10SM SCT065 12/07 A3035 RMK AO2
KL35 100635Z AUTO 00000KT 10SM CLR 12/07 A3035 RMK AO2
KL35 100615Z AUTO 00000KT 10SM CLR 12/07 A3035 RMK AO2
KL35 100555Z AUTO 00000KT 10SM CLR 13/08 A3035 RMK AO2
KL35 100535Z AUTO 00000KT 10SM CLR 13/07 A3036 RMK AO2
KL35 100515Z AUTO 00000KT 10SM SCT065 14/08 A3036 RMK AO2
KL35 100455Z AUTO 00000KT 10SM CLR 15/08 A3036 RMK AO2
KL35 100435Z AUTO 00000KT 10SM CLR 15/08 A3035 RMK AO2
KL35 100415Z AUTO 00000KT 10SM CLR 16/08 A3033 RMK AO2
KL35 100355Z AUTO 00000KT 10SM CLR 16/08 A3033 RMK AO2
KL35 100335Z AUTO 00000KT 10SM CLR 17/08 A3032 RMK AO2
KL35 100315Z AUTO 00000KT 10SM SCT090 17/08 A3032 RMK AO2
KL35 100255Z AUTO 27006KT 10SM SCT090 17/08 A3031 RMK AO2
KL35 100235Z AUTO 26006KT 10SM CLR 18/08 A3031 RMK AO2
KL35 100215Z AUTO 27006KT 10SM CLR 18/08 A3031 RMK AO2
KL35 100155Z AUTO 27007KT 10SM CLR 20/08 A3030 RMK AO2
KL35 100135Z AUTO 27008KT 10SM CLR 20/07 A3030 RMK AO2
KL35 100115Z AUTO 27011KT 10SM CLR 21/07 A3030 RMK AO2
KL35 100055Z AUTO 27010G15KT 10SM CLR 21/07 A3029 RMK AO2
KL35 100035Z AUTO 27012G18KT 10SM CLR 22/07 A3029 RMK AO2
KL35 100015Z AUTO 24009G17KT 204V274 10SM CLR 22/07 A3029 RMK AO2
KL35 092355Z AUTO 24007G15KT 214V274 10SM CLR 22/07 A3029 RMK AO2
KL35 092335Z AUTO 24008KT 10SM CLR 23/07 A3029 RMK AO2
KL35 092315Z AUTO 23007KT 194V284 10SM CLR 22/07 A3029 RMK AO2
KL35 092255Z AUTO 26007G18KT 224V284 10SM CLR 23/08 A3029 RMK AO2
KL35 092235Z AUTO 22008G14KT 204V264 10SM SCT110 23/08 A3029 RMK AO2
KL35 092215Z AUTO 24004KT 10SM SCT050 BKN110 23/09 A3030 RMK AO2
KL35 092155Z AUTO 31004KT 10SM SCT050 BKN110 22/10 A3030 RMK AO2
KL35 092135Z AUTO 00000KT 10SM SCT060 SCT110 21/10 A3031 RMK AO2
KL35 092115Z AUTO 09006KT 10SM SCT048 BKN050 OVC110 21/11 A3032 RMK AO2
KL35 092055Z AUTO 08006KT 10SM OVC046 20/11 A3033 RMK AO2
KL35 092035Z AUTO 09008KT 10SM OVC046 21/11 A3033 RMK AO2
KL35 092015Z AUTO 07007KT 10SM BKN048 OVC060 21/11 A3033 RMK AO2
KL35 091955Z AUTO 08005KT 10SM -RA SCT050 BKN080 OVC120 21/11 A3033 RMK AO2
KL35 091935Z AUTO 04004KT 10SM SCT045 SCT060 SCT080 21/11 A3033 RMK AO2
KL35 091915Z AUTO 27004KT 10SM SCT050 SCT070 BKN080 21/11 A3034 RMK AO2
KL35 091855Z AUTO 27004KT 10SM OVC048 20/10 A3034 RMK AO2
KL35 091835Z AUTO 00000KT 10SM BKN050 BKN060 21/10 A3034 RMK AO2
KL35 091815Z AUTO 27006KT 10SM CLR 22/10 A3034 RMK AO2
KL35 091755Z AUTO 26005KT 10SM CLR 21/10 A3034 RMK AO2
KL35 091735Z AUTO 29006KT 10SM CLR 21/11 A3034 RMK AO2
KL35 091715Z AUTO 28005KT 10SM CLR 20/11 A3034 RMK AO2
KL35 091655Z AUTO 00000KT 10SM SCT120 19/11 A3034 RMK AO2
KL35 091635Z AUTO 00000KT 10SM SCT120 18/12 A3034 RMK AO2
KL35 091615Z AUTO 00000KT 10SM SCT120 17/12 A3034 RMK AO2
KL35 091555Z AUTO 00000KT 10SM SCT120 16/12 A3034 RMK AO2
KL35 091535Z AUTO 00000KT 10SM SCT120 15/12 A3034 RMK AO2
KL35 091515Z AUTO 00000KT 10SM SCT120 15/11 A3033 RMK AO2
KL35 091455Z AUTO 00000KT 10SM SCT120 14/11 A3033 RMK AO2
KL35 091435Z AUTO 00000KT 10SM SCT120 13/10 A3032 RMK AO2
KL35 091415Z AUTO 00000KT 10SM CLR 13/10 A3031 RMK AO2
KL35 091355Z AUTO 00000KT 10SM CLR 13/10 A3031 RMK AO2
KL35 091335Z AUTO 00000KT 10SM CLR 12/10 A3031 RMK AO2
KL35 091315Z AUTO 00000KT 10SM CLR 12/10 A3031 RMK AO2
KL35 091255Z AUTO 00000KT 10SM CLR 12/10 A3031 RMK AO2
KL35 091235Z AUTO 00000KT 10SM CLR 12/09 A3031 RMK AO2
KL35 091215Z AUTO 00000KT 10SM CLR 12/10 A3030 RMK AO2
KL35 091155Z AUTO 00000KT 10SM CLR 12/10 A3030 RMK AO2
KL35 091135Z AUTO 00000KT 10SM CLR 12/10 A3030 RMK AO2
KL35 091115Z AUTO 00000KT 10SM CLR 12/10 A3030 RMK AO2
KL35 091055Z AUTO 00000KT 10SM CLR 12/10 A3030 RMK AO2
KL35 091035Z AUTO 00000KT 10SM CLR 13/10 A3030 RMK AO2
KL35 091015Z AUTO 00000KT 10SM CLR 13/10 A3030 RMK AO2
KL35 090955Z AUTO 00000KT 10SM CLR 13/11 A3030 RMK AO2
KL35 090935Z AUTO 00000KT 10SM CLR 15/11 A3030 RMK AO2
KL35 090915Z AUTO 00000KT 10SM SCT075 15/11 A3030 RMK AO2
KL35 090855Z AUTO 00000KT 10SM SCT075 BKN085 16/11 A3030 RMK AO2
KL35 090835Z AUTO 00000KT 10SM OVC075 16/11 A3030 RMK AO2
KL35 090815Z AUTO 00000KT 10SM OVC075 16/11 A3031 RMK AO2
KL35 090755Z AUTO 00000KT 10SM OVC080 16/10 A3031 RMK AO2
KL35 090735Z AUTO 00000KT 10SM OVC090 16/10 A3032 RMK AO2
KL35 090715Z AUTO 00000KT 10SM OVC090 15/10 A3033 RMK AO2
KL35 090655Z AUTO 00000KT 10SM OVC100 15/10 A3033 RMK AO2
KL35 090635Z AUTO 00000KT 10SM BKN100 OVC120 15/10 A3033 RMK AO2
KL35 090615Z AUTO 00000KT 10SM BKN110 15/10 A3033 RMK AO2
KL35 090555Z AUTO 00000KT 10SM SCT120 15/10 A3033 RMK AO2
KL35 090535Z AUTO 00000KT 10SM OVC120 15/10 A3033 RMK AO2
KL35 090515Z AUTO 00000KT 10SM SCT120 16/10 A3033 RMK AO2
KL35 090455Z AUTO 00000KT 10SM SCT120 16/11 A3033 RMK AO2
KL35 090435Z AUTO 00000KT 10SM SCT110 17/11 A3032 RMK AO2
KL35 090415Z AUTO 00000KT 10SM SCT110 17/11 A3032 RMK AO2
KL35 090355Z AUTO 00000KT 10SM BKN110 18/11 A3031 RMK AO2
KL35 090335Z AUTO 00000KT 10SM OVC110 18/11 A3031 RMK AO2
KL35 090315Z AUTO 00000KT 10SM OVC110 18/10 A3031 RMK AO2